KTEB/TEB METAR and TAF weather

Enter ICAO airport designator
Station Type Date Time Source
KTEB METAR 2022/05/26 04:51 UTC NOAA

KTEB 260451Z 00000KT 10SM CLR 13/04 A3035 RMK AO2 SLP278 T01330039 402220122


Station Type Date Time Source
KTEB Decoded METAR 2022/05/26 04:51 UTC NOAA

TETERBORO AIRPORT, NJ, United States (KTEB) 40-52N 74-03W 7M
May 26, 2022 - 12:51 AM EDT / 2022.05.26 0451 UTC
Wind: Calm:0
Visibility: 10 mile(s):0
Sky conditions: clear
Temperature: 55.9 F (13.3 C)
Dew Point: 39.0 F (3.9 C)
Relative Humidity: 52%
Pressure (altimeter): 30.35 in. Hg (1027 hPa)
ob: KTEB 260451Z 00000KT 10SM CLR 13/04 A3035 RMK AO2 SLP278 T01330039 402220122
cycle: 5

Station Type Date Time Source
KTEB TAF 2022/05/26 06:33 UTC NOAA

TAF KTEB 260530Z 2606/2712 VRB03KT P6SM SCT070 SCT150
FM261400 17009KT P6SM BKN050
FM270000 18005KT P6SM SCT007 BKN025
FM270600 18004KT 3SM BR OVC007
FM270900 18005KT 1SM -DZ BR OVC003

Example: see airport list